Time;durP1;ratioP1;P1;durP2;ratioP2;P2;SDS_P1;SDS_P2;PMS_P1;PMS_P2;Temp;Humidity;BMP_temperature;BMP_pressure;BME280_temperature;BME280_humidity;BME280_pressure;Samples;Min_cycle;Max_cycle;Signal;HPM_P1;HPM_P2
2021/08/23 00:01:37;;;;;;;11.93;6.43;;;15.60;99.90;;;;;;4128081;28;20214;-85
2021/08/23 00:03:39;;;;;;;11.27;6.23;;;15.60;99.90;;;;;;4120917;28;20229;-84
2021/08/23 00:05:40;;;;;;;13.70;6.07;;;15.60;99.90;;;;;;4130850;28;20212;-84
2021/08/23 00:07:43;;;;;;;10.60;5.63;;;15.60;99.90;;;;;;4130111;28;20277;-85
2021/08/23 00:09:46;;;;;;;12.10;5.97;;;15.60;99.90;;;;;;4130815;28;20223;-85
2021/08/23 00:11:49;;;;;;;12.67;5.77;;;15.90;99.90;;;;;;4131206;28;21237;-85
2021/08/23 00:13:51;;;;;;;10.27;5.83;;;15.60;99.90;;;;;;4130792;28;20207;-85
2021/08/23 00:15:55;;;;;;;11.90;5.87;;;15.60;99.90;;;;;;4129935;28;20220;-85
2021/08/23 00:17:56;;;;;;;10.50;5.63;;;15.60;99.90;;;;;;4131423;28;20464;-85
2021/08/23 00:19:58;;;;;;;11.33;6.03;;;15.60;99.90;;;;;;4130132;28;20650;-85
2021/08/23 00:22:19;;;;;;;11.17;6.17;;;15.60;99.90;;;;;;4123503;28;20219;-84
2021/08/23 00:24:23;;;;;;;11.07;5.47;;;15.70;99.90;;;;;;4129902;28;20628;-84
2021/08/23 00:26:24;;;;;;;10.30;5.83;;;15.60;99.90;;;;;;4128306;28;20256;-84
2021/08/23 00:28:26;;;;;;;9.03;5.50;;;15.80;99.90;;;;;;4130605;28;20214;-84
2021/08/23 00:30:28;;;;;;;12.13;5.53;;;15.70;99.90;;;;;;4129478;28;20209;-84
2021/08/23 00:32:29;;;;;;;9.07;4.87;;;15.60;99.90;;;;;;4130896;28;20240;-85
2021/08/23 00:34:31;;;;;;;9.83;5.10;;;15.70;99.90;;;;;;4130344;28;20222;-83
2021/08/23 00:36:33;;;;;;;11.83;5.93;;;15.70;99.90;;;;;;4125108;28;20230;-84
2021/08/23 00:38:34;;;;;;;11.63;5.13;;;15.70;99.90;;;;;;4115234;28;20655;-84
2021/08/23 00:40:38;;;;;;;9.57;4.90;;;15.60;99.90;;;;;;4124648;28;20232;-84
2021/08/23 00:42:43;;;;;;;9.23;5.00;;;15.70;99.90;;;;;;4131871;28;20213;-83
2021/08/23 00:44:44;;;;;;;8.87;5.10;;;15.60;99.90;;;;;;4130096;28;20586;-84
2021/08/23 00:46:49;;;;;;;11.20;5.60;;;15.70;99.90;;;;;;4122672;28;20250;-85
2021/08/23 00:48:51;;;;;;;9.73;5.20;;;15.70;99.90;;;;;;4116149;28;20265;-83
2021/08/23 00:50:53;;;;;;;10.60;5.23;;;15.60;99.90;;;;;;4128288;28;20202;-84
2021/08/23 00:52:54;;;;;;;11.33;5.50;;;15.60;99.90;;;;;;4132364;28;20652;-84
2021/08/23 00:54:56;;;;;;;10.60;5.60;;;15.70;99.90;;;;;;4125903;28;20736;-85
2021/08/23 00:57:00;;;;;;;13.03;6.10;;;15.80;99.90;;;;;;4117462;28;20265;-85
2021/08/23 00:59:02;;;;;;;10.77;5.93;;;15.60;99.90;;;;;;4131520;28;20217;-84
2021/08/23 01:01:07;;;;;;;9.30;5.67;;;15.60;99.90;;;;;;4133280;28;20555;-85
2021/08/23 01:03:14;;;;;;;10.93;5.70;;;15.60;99.90;;;;;;4131928;28;20260;-84
2021/08/23 01:05:19;;;;;;;11.07;5.97;;;15.60;99.90;;;;;;4132963;28;20284;-85
2021/08/23 01:07:24;;;;;;;9.10;5.33;;;15.60;99.90;;;;;;4136765;28;20229;-84
2021/08/23 01:09:30;;;;;;;12.70;5.50;;;15.60;99.90;;;;;;4138678;28;20294;-86
2021/08/23 01:11:34;;;;;;;11.07;5.53;;;15.60;99.90;;;;;;4135773;28;20219;-85
2021/08/23 01:13:40;;;;;;;10.00;5.40;;;15.60;99.90;;;;;;4136638;28;20217;-85
2021/08/23 01:15:42;;;;;;;10.60;5.73;;;15.80;99.90;;;;;;4121319;28;20293;-85
2021/08/23 01:17:44;;;;;;;10.23;5.83;;;15.60;99.90;;;;;;4131416;28;20238;-85
2021/08/23 01:19:48;;;;;;;9.70;5.23;;;15.60;99.90;;;;;;4127981;28;20304;-85
2021/08/23 01:21:53;;;;;;;10.83;4.90;;;15.60;99.90;;;;;;4131170;28;20242;-85
2021/08/23 01:23:56;;;;;;;9.77;4.70;;;15.60;99.90;;;;;;4132137;28;20284;-85
2021/08/23 01:25:58;;;;;;;8.37;4.63;;;15.50;99.90;;;;;;4133426;28;20209;-86
2021/08/23 01:28:07;;;;;;;10.33;4.67;;;15.50;99.90;;;;;;4132416;28;20276;-85
2021/08/23 01:30:12;;;;;;;7.90;4.20;;;15.60;99.90;;;;;;4118715;28;20734;-86
2021/08/23 01:32:18;;;;;;;8.60;4.10;;;15.50;99.90;;;;;;4127401;28;20221;-85
2021/08/23 01:34:21;;;;;;;8.50;4.47;;;15.60;99.90;;;;;;4132418;28;20259;-85
2021/08/23 01:36:24;;;;;;;8.13;4.50;;;15.50;99.90;;;;;;4131948;28;20893;-85
2021/08/23 01:38:26;;;;;;;9.03;4.50;;;15.60;99.90;;;;;;4131767;28;20625;-85
2021/08/23 01:40:28;;;;;;;8.43;4.77;;;15.50;99.90;;;;;;4133170;28;20210;-85
2021/08/23 01:42:31;;;;;;;7.67;4.07;;;15.50;99.90;;;;;;4132228;28;20225;-86
2021/08/23 01:44:33;;;;;;;7.97;4.00;;;15.50;99.90;;;;;;4133303;28;20232;-85
2021/08/23 01:46:35;;;;;;;8.30;4.10;;;15.90;99.90;;;;;;4132382;28;20232;-86
2021/08/23 01:48:38;;;;;;;7.30;3.67;;;15.50;99.90;;;;;;4133649;28;20273;-86
2021/08/23 01:50:39;;;;;;;9.60;4.73;;;15.50;99.90;;;;;;4131578;28;20221;-86
2021/08/23 01:52:41;;;;;;;8.13;4.17;;;15.40;99.90;;;;;;4131224;28;20212;-86
2021/08/23 01:54:44;;;;;;;7.70;4.03;;;15.40;99.90;;;;;;4132211;28;20209;-86
2021/08/23 01:56:46;;;;;;;9.00;4.63;;;15.40;99.90;;;;;;4133395;28;20232;-86
2021/08/23 01:58:47;;;;;;;8.67;4.50;;;15.40;99.90;;;;;;4133497;28;20267;-87
2021/08/23 02:00:49;;;;;;;8.73;4.70;;;15.40;99.90;;;;;;4131170;28;20205;-86
2021/08/23 02:02:51;;;;;;;10.03;5.07;;;15.40;99.90;;;;;;4124881;28;20212;-86
2021/08/23 02:04:54;;;;;;;8.63;4.80;;;15.40;99.90;;;;;;4129047;28;20236;-86
2021/08/23 02:06:56;;;;;;;9.47;5.27;;;15.40;99.90;;;;;;4132405;28;20573;-86
2021/08/23 02:08:58;;;;;;;10.33;4.37;;;15.40;99.90;;;;;;4133159;28;20282;-86
2021/08/23 02:11:02;;;;;;;8.50;4.87;;;15.20;99.90;;;;;;4129945;28;20259;-86
2021/08/23 02:13:04;;;;;;;8.67;4.97;;;15.40;99.90;;;;;;4125374;28;20216;-86
2021/08/23 02:15:07;;;;;;;8.57;5.03;;;15.40;99.90;;;;;;4131017;28;20212;-85
2021/08/23 02:17:08;;;;;;;9.17;4.80;;;15.40;99.90;;;;;;4131929;28;20230;-85
2021/08/23 02:19:10;;;;;;;9.83;4.43;;;15.30;99.90;;;;;;4132015;28;20275;-85
2021/08/23 02:21:14;;;;;;;8.60;4.73;;;15.40;99.90;;;;;;4127733;28;20580;-86
2021/08/23 02:23:15;;;;;;;10.00;4.93;;;15.40;99.90;;;;;;4131859;28;20257;-86
2021/08/23 02:25:22;;;;;;;11.27;5.17;;;15.30;99.90;;;;;;4131647;28;20220;-86
2021/08/23 02:27:23;;;;;;;9.13;4.70;;;15.40;99.90;;;;;;4132241;28;20245;-85
2021/08/23 02:29:25;;;;;;;10.17;5.20;;;15.40;99.90;;;;;;4132873;28;20596;-85
2021/08/23 02:31:27;;;;;;;10.63;5.27;;;15.40;99.90;;;;;;4129152;28;20613;-86
2021/08/23 02:33:28;;;;;;;15.60;5.83;;;15.40;99.90;;;;;;4131016;28;20218;-87
2021/08/23 02:35:30;;;;;;;13.37;6.37;;;15.40;99.90;;;;;;4132052;28;20213;-88
2021/08/23 02:37:33;;;;;;;13.93;6.70;;;15.40;99.90;;;;;;4130138;28;20711;-86
2021/08/23 02:39:35;;;;;;;12.60;6.37;;;15.40;99.90;;;;;;4129609;28;20274;-86
2021/08/23 02:41:37;;;;;;;13.23;6.83;;;15.40;99.90;;;;;;4132179;28;20675;-86
2021/08/23 02:43:38;;;;;;;12.63;6.30;;;15.40;99.90;;;;;;4133842;28;20220;-86
2021/08/23 02:45:40;;;;;;;13.40;7.10;;;15.40;99.90;;;;;;4127487;28;20230;-86
2021/08/23 02:47:42;;;;;;;12.63;6.87;;;15.40;99.90;;;;;;4130704;28;20233;-86
2021/08/23 02:49:44;;;;;;;13.77;7.27;;;15.40;99.90;;;;;;4131225;28;20209;-86
2021/08/23 02:51:46;;;;;;;16.60;8.37;;;15.40;99.90;;;;;;4130919;28;20213;-87
2021/08/23 02:53:49;;;;;;;14.90;8.27;;;15.50;99.90;;;;;;4126164;28;20214;-86
2021/08/23 02:55:51;;;;;;;17.50;9.03;;;15.40;99.90;;;;;;4125820;28;20232;-86
2021/08/23 02:57:52;;;;;;;20.67;9.30;;;15.40;99.90;;;;;;4131447;28;20692;-87
2021/08/23 02:59:54;;;;;;;17.37;9.30;;;15.50;99.90;;;;;;4132087;28;20208;-85
2021/08/23 03:01:56;;;;;;;19.13;10.03;;;15.40;99.90;;;;;;4131839;28;20623;-86
2021/08/23 03:03:58;;;;;;;25.17;11.83;;;15.50;99.90;;;;;;4124486;28;20582;-86
2021/08/23 03:05:59;;;;;;;25.57;11.63;;;15.50;99.90;;;;;;4131096;28;20730;-86
2021/08/23 03:08:01;;;;;;;26.70;12.47;;;15.50;99.90;;;;;;4131176;28;20596;-86
2021/08/23 03:10:05;;;;;;;27.73;13.10;;;15.50;99.90;;;;;;4127886;28;20216;-86
2021/08/23 03:12:09;;;;;;;33.37;14.93;;;15.50;99.90;;;;;;4130662;28;20213;-87
2021/08/23 03:14:11;;;;;;;34.50;15.50;;;15.50;99.90;;;;;;4130532;28;20213;-86
2021/08/23 03:16:13;;;;;;;33.47;15.30;;;15.40;99.90;;;;;;4131495;28;20221;-86
2021/08/23 03:18:15;;;;;;;32.60;15.23;;;15.50;99.90;;;;;;4131825;28;20210;-86
2021/08/23 03:20:17;;;;;;;32.73;15.50;;;15.50;99.90;;;;;;4126947;28;20393;-86
2021/08/23 03:22:19;;;;;;;30.07;14.83;;;15.50;99.90;;;;;;4134674;28;21024;-85
2021/08/23 03:24:20;;;;;;;33.33;15.57;;;15.50;99.90;;;;;;4134502;28;20220;-86
2021/08/23 03:26:23;;;;;;;36.27;16.33;;;15.50;99.90;;;;;;4142329;28;20229;-85
2021/08/23 03:28:25;;;;;;;39.53;18.17;;;15.50;99.90;;;;;;4145225;28;20205;-85
2021/08/23 03:30:27;;;;;;;35.23;18.47;;;15.50;99.90;;;;;;4133044;28;20738;-86
2021/08/23 03:32:29;;;;;;;42.10;19.17;;;15.50;99.90;;;;;;4131973;28;20212;-85
2021/08/23 03:34:30;;;;;;;37.73;19.20;;;15.50;99.90;;;;;;4131979;28;20213;-86
2021/08/23 03:36:32;;;;;;;36.90;19.10;;;15.50;99.90;;;;;;4131013;28;20225;-85
2021/08/23 03:38:34;;;;;;;44.47;20.47;;;15.50;99.90;;;;;;4130270;28;20271;-85
2021/08/23 03:40:36;;;;;;;41.07;20.63;;;15.50;99.90;;;;;;4122119;28;20588;-86
2021/08/23 03:42:39;;;;;;;43.37;22.00;;;15.50;99.90;;;;;;4130820;28;20280;-86
2021/08/23 03:44:41;;;;;;;47.37;23.00;;;15.40;99.90;;;;;;4130413;28;20279;-85
2021/08/23 03:46:42;;;;;;;53.93;25.63;;;15.40;99.90;;;;;;4147945;23;20242;-84
2021/08/23 03:48:45;;;;;;;58.77;25.83;;;15.50;99.90;;;;;;4147079;28;20224;-83
2021/08/23 03:50:47;;;;;;;52.53;25.87;;;15.40;99.90;;;;;;4153322;28;20270;-83
2021/08/23 03:52:49;;;;;;;57.53;26.67;;;15.40;99.90;;;;;;4156110;28;20641;-83
2021/08/23 03:54:50;;;;;;;55.00;26.93;;;15.40;99.90;;;;;;4149195;28;20578;-82
2021/08/23 03:56:52;;;;;;;51.33;26.63;;;15.40;99.90;;;;;;4150260;28;20227;-83
2021/08/23 03:58:56;;;;;;;47.97;24.27;;;15.40;99.90;;;;;;4150807;28;20221;-83
2021/08/23 04:00:58;;;;;;;51.77;25.50;;;15.40;99.90;;;;;;4148743;28;20292;-83
2021/08/23 04:03:00;;;;;;;49.80;24.50;;;15.40;99.90;;;;;;4148988;28;20216;-82
2021/08/23 04:05:02;;;;;;;43.50;24.83;;;15.40;99.90;;;;;;4140594;28;20255;-83
2021/08/23 04:07:04;;;;;;;49.27;26.23;;;15.40;99.90;;;;;;4149415;28;20734;-82
2021/08/23 04:09:06;;;;;;;48.93;26.07;;;15.50;99.90;;;;;;4151235;28;20212;-82
2021/08/23 04:11:07;;;;;;;51.47;27.43;;;15.40;99.90;;;;;;4152118;28;20204;-84
2021/08/23 04:13:09;;;;;;;48.63;27.53;;;15.40;99.90;;;;;;4148924;28;20684;-82
2021/08/23 04:15:12;;;;;;;49.43;27.87;;;16.10;99.90;;;;;;4148507;28;20200;-82
2021/08/23 04:17:14;;;;;;;45.83;26.23;;;15.30;99.90;;;;;;4149492;28;20236;-83
2021/08/23 04:19:16;;;;;;;47.63;26.00;;;15.30;99.90;;;;;;4148213;28;20217;-83
2021/08/23 04:21:17;;;;;;;44.83;25.13;;;15.30;99.90;;;;;;4141714;28;20201;-84
2021/08/23 04:23:19;;;;;;;45.70;25.13;;;15.30;99.90;;;;;;4149086;28;20270;-82
2021/08/23 04:25:21;;;;;;;43.07;22.20;;;15.30;99.90;;;;;;4149928;28;20706;-82
2021/08/23 04:27:23;;;;;;;41.67;22.10;;;15.70;99.90;;;;;;4156227;28;20705;-82
2021/08/23 04:29:24;;;;;;;43.63;22.57;;;15.30;99.90;;;;;;4153328;28;20750;-83
2021/08/23 04:31:28;;;;;;;39.23;22.37;;;15.20;99.90;;;;;;4150404;28;20290;-82
2021/08/23 04:33:30;;;;;;;36.57;20.57;;;15.30;99.90;;;;;;4151672;28;20604;-82
2021/08/23 04:35:31;;;;;;;39.40;21.23;;;15.20;99.90;;;;;;4150403;28;20264;-83
2021/08/23 04:37:33;;;;;;;36.30;20.63;;;15.40;99.90;;;;;;4151854;28;20606;-82
2021/08/23 04:39:35;;;;;;;39.37;21.07;;;15.20;99.90;;;;;;4145820;28;20225;-82
2021/08/23 04:41:37;;;;;;;41.73;20.90;;;15.20;99.90;;;;;;4147848;28;20220;-82
2021/08/23 04:43:39;;;;;;;34.53;19.33;;;15.10;99.90;;;;;;4151553;28;20208;-82
2021/08/23 04:45:40;;;;;;;34.93;19.90;;;15.20;99.90;;;;;;4151201;28;20702;-83
2021/08/23 04:47:44;;;;;;;35.23;19.67;;;15.10;99.90;;;;;;4152498;28;20259;-83
2021/08/23 04:49:45;;;;;;;32.07;19.43;;;15.10;99.90;;;;;;4152385;28;20216;-82
2021/08/23 04:51:47;;;;;;;34.53;18.80;;;15.10;99.90;;;;;;4151047;28;20212;-83
2021/08/23 04:53:49;;;;;;;30.50;17.60;;;15.10;99.90;;;;;;4152555;28;20208;-82
2021/08/23 04:55:50;;;;;;;25.97;16.87;;;15.10;99.90;;;;;;4153966;28;20203;-83
2021/08/23 04:57:53;;;;;;;29.83;17.47;;;15.10;99.90;;;;;;4153187;28;20235;-81
2021/08/23 04:59:54;;;;;;;27.43;16.33;;;15.10;99.90;;;;;;4151556;28;20251;-83
2021/08/23 05:01:56;;;;;;;26.23;16.27;;;15.10;99.90;;;;;;4151797;28;20204;-81
2021/08/23 05:03:59;;;;;;;31.80;16.80;;;15.30;99.90;;;;;;4145195;28;20213;-82
2021/08/23 05:06:01;;;;;;;24.73;15.07;;;15.20;99.90;;;;;;4152552;28;20286;-82
2021/08/23 05:08:03;;;;;;;23.33;15.47;;;15.10;99.90;;;;;;4164599;28;20246;-83
2021/08/23 05:10:07;;;;;;;26.43;15.33;;;15.10;99.90;;;;;;4155810;28;20574;-82
2021/08/23 05:12:09;;;;;;;26.67;15.30;;;15.10;99.90;;;;;;4149175;28;20219;-81
2021/08/23 05:14:11;;;;;;;29.43;15.50;;;15.00;99.90;;;;;;4152777;28;21466;-82
2021/08/23 05:16:12;;;;;;;24.50;14.23;;;15.10;99.90;;;;;;4149359;28;20214;-82
2021/08/23 05:18:14;;;;;;;24.90;15.10;;;15.10;99.90;;;;;;4150652;28;20261;-82
2021/08/23 05:20:17;;;;;;;27.53;14.93;;;15.10;99.90;;;;;;4152301;28;20262;-81
2021/08/23 05:22:19;;;;;;;24.47;14.30;;;15.10;99.90;;;;;;4152267;28;20217;-81
2021/08/23 05:24:21;;;;;;;21.90;12.97;;;15.10;99.90;;;;;;4148747;28;20208;-81
2021/08/23 05:26:22;;;;;;;22.47;13.53;;;15.10;99.90;;;;;;4148156;28;20533;-81
2021/08/23 05:28:26;;;;;;;19.77;12.40;;;15.10;99.90;;;;;;4153078;28;20204;-81
2021/08/23 05:30:28;;;;;;;19.80;11.67;;;15.10;99.90;;;;;;4151017;28;20222;-83
2021/08/23 05:32:29;;;;;;;18.70;11.97;;;15.10;99.90;;;;;;4154594;28;20213;-81
2021/08/23 05:34:31;;;;;;;16.93;11.33;;;15.10;99.90;;;;;;4150170;28;20208;-81
2021/08/23 05:36:34;;;;;;;21.97;12.47;;;15.10;99.90;;;;;;4151357;28;20221;-81
2021/08/23 05:38:36;;;;;;;19.17;11.93;;;15.10;99.90;;;;;;4151368;28;20238;-82
2021/08/23 05:40:38;;;;;;;20.40;11.77;;;15.10;99.90;;;;;;4149817;28;20302;-83
2021/08/23 05:42:40;;;;;;;14.20;10.13;;;15.20;99.90;;;;;;4149443;28;20222;-81
2021/08/23 05:44:42;;;;;;;17.43;10.53;;;15.10;99.90;;;;;;4151779;28;20655;-81
2021/08/23 05:46:43;;;;;;;16.60;9.80;;;15.10;99.90;;;;;;4149219;28;20624;-82
2021/08/23 05:48:45;;;;;;;15.70;9.10;;;15.10;99.90;;;;;;4150510;28;20568;-85
2021/08/23 05:50:47;;;;;;;13.33;8.80;;;15.10;99.90;;;;;;4148459;28;20650;-81
2021/08/23 05:52:50;;;;;;;14.10;9.30;;;15.10;99.90;;;;;;4152975;28;20212;-83
2021/08/23 05:54:51;;;;;;;16.00;9.50;;;15.10;99.90;;;;;;4149170;28;20212;-82
2021/08/23 05:56:56;;;;;;;12.23;8.63;;;15.60;99.90;;;;;;4154365;28;20220;-82
2021/08/23 05:58:58;;;;;;;12.10;7.83;;;15.20;99.90;;;;;;4149707;28;20290;-82
2021/08/23 06:00:59;;;;;;;12.70;8.00;;;15.10;99.90;;;;;;4153091;28;20220;-82
2021/08/23 06:03:01;;;;;;;9.77;7.00;;;15.20;99.90;;;;;;4151968;28;20582;-83
2021/08/23 06:05:03;;;;;;;8.97;6.00;;;15.20;99.90;;;;;;4153124;28;20731;-84
2021/08/23 06:07:07;;;;;;;8.77;6.53;;;15.10;99.90;;;;;;4156212;28;20232;-82
2021/08/23 06:09:10;;;;;;;7.87;5.93;;;15.20;99.90;;;;;;4156550;28;20208;-83
2021/08/23 06:11:12;;;;;;;8.27;5.83;;;15.20;99.90;;;;;;4156622;28;20208;-83
2021/08/23 06:13:14;;;;;;;7.67;5.70;;;15.10;99.90;;;;;;4153409;28;20204;-82
2021/08/23 06:15:15;;;;;;;8.13;5.80;;;15.90;99.90;;;;;;4155408;28;20248;-82
2021/08/23 06:17:17;;;;;;;8.47;5.90;;;15.20;99.90;;;;;;4152347;28;20225;-82
2021/08/23 06:19:19;;;;;;;8.57;6.10;;;15.40;99.90;;;;;;4151890;28;20266;-82
2021/08/23 06:21:20;;;;;;;7.73;5.33;;;15.30;99.90;;;;;;4154200;28;20682;-82
2021/08/23 06:23:22;;;;;;;8.73;6.20;;;15.40;99.90;;;;;;4155086;28;20215;-80
2021/08/23 06:25:25;;;;;;;9.33;6.23;;;15.40;99.90;;;;;;4157816;28;20205;-85
2021/08/23 06:27:27;;;;;;;9.90;6.40;;;15.40;99.90;;;;;;4142338;28;20310;-85
2021/08/23 06:29:29;;;;;;;8.50;6.27;;;15.40;99.90;;;;;;4146309;28;20286;-82
2021/08/23 06:31:31;;;;;;;10.40;7.23;;;15.40;99.90;;;;;;4146491;28;20633;-83
2021/08/23 06:33:32;;;;;;;10.37;7.20;;;15.30;99.90;;;;;;4146036;28;20213;-83
2021/08/23 06:35:34;;;;;;;11.07;7.43;;;15.60;99.90;;;;;;4148251;28;20263;-82
2021/08/23 06:37:37;;;;;;;11.83;7.93;;;15.50;99.90;;;;;;4146297;28;20241;-81
2021/08/23 06:39:38;;;;;;;11.93;7.90;;;15.50;99.90;;;;;;4141348;28;20229;-82
2021/08/23 06:41:41;;;;;;;10.57;8.10;;;15.60;99.90;;;;;;4146987;28;20663;-83
2021/08/23 06:43:43;;;;;;;10.10;7.63;;;15.60;99.90;;;;;;4146270;28;20213;-83
2021/08/23 06:45:45;;;;;;;10.47;8.50;;;15.60;99.90;;;;;;4144958;28;20295;-82
2021/08/23 06:47:46;;;;;;;10.13;8.10;;;15.60;99.90;;;;;;4145411;28;20351;-82
2021/08/23 06:49:48;;;;;;;11.33;8.70;;;15.70;99.90;;;;;;4152396;28;20220;-83
2021/08/23 06:51:50;;;;;;;10.97;8.20;;;15.60;99.90;;;;;;4145685;28;20221;-83
2021/08/23 06:53:52;;;;;;;10.23;8.30;;;15.70;99.90;;;;;;4147358;28;20213;-82
2021/08/23 06:55:54;;;;;;;11.13;8.47;;;15.70;99.90;;;;;;4147541;28;20209;-82
2021/08/23 06:57:57;;;;;;;11.30;8.43;;;15.70;99.90;;;;;;4135955;28;20241;-82
2021/08/23 06:59:59;;;;;;;11.17;7.83;;;15.80;99.90;;;;;;4141557;28;20219;-82
2021/08/23 07:02:00;;;;;;;10.40;7.67;;;15.90;99.90;;;;;;4145642;28;20222;-84
2021/08/23 07:04:02;;;;;;;10.37;7.60;;;15.80;99.90;;;;;;4158002;28;20475;-82
2021/08/23 07:06:04;;;;;;;9.47;7.43;;;15.80;99.90;;;;;;4150680;28;20237;-82
2021/08/23 07:08:07;;;;;;;8.80;6.97;;;15.80;99.90;;;;;;4153582;28;20595;-82
2021/08/23 07:10:11;;;;;;;10.00;7.13;;;15.80;99.90;;;;;;4148343;28;20228;-83
2021/08/23 07:12:13;;;;;;;8.30;7.00;;;15.80;99.90;;;;;;4148280;28;20650;-83
2021/08/23 07:14:16;;;;;;;9.30;6.53;;;15.80;99.90;;;;;;4153744;28;20209;-82
2021/08/23 07:16:18;;;;;;;10.37;6.90;;;16.40;99.90;;;;;;4150049;28;20660;-82
2021/08/23 07:18:20;;;;;;;13.40;7.57;;;15.80;99.90;;;;;;4143105;28;20568;-82
2021/08/23 07:20:21;;;;;;;14.47;7.47;;;15.80;99.90;;;;;;4146345;28;20214;-83
2021/08/23 07:22:23;;;;;;;15.37;7.97;;;15.80;99.90;;;;;;4145520;28;20222;-84
2021/08/23 07:24:25;;;;;;;12.53;7.00;;;15.90;99.90;;;;;;4146415;28;20297;-83
2021/08/23 07:26:27;;;;;;;10.97;6.47;;;15.90;99.90;;;;;;4146349;28;20406;-82
2021/08/23 07:28:28;;;;;;;10.03;6.03;;;16.10;99.90;;;;;;4143264;28;20249;-83
2021/08/23 07:30:32;;;;;;;11.27;6.10;;;15.90;99.90;;;;;;4146821;28;20477;-83
2021/08/23 07:32:33;;;;;;;6.90;5.43;;;16.00;99.90;;;;;;4144754;28;20212;-83
2021/08/23 07:34:35;;;;;;;8.13;5.43;;;15.90;99.90;;;;;;4156422;28;20211;-82
2021/08/23 07:36:37;;;;;;;7.70;5.73;;;16.10;99.90;;;;;;4144136;28;20290;-82
2021/08/23 07:38:39;;;;;;;8.67;5.67;;;16.10;99.90;;;;;;4150956;28;20276;-82
2021/08/23 07:40:41;;;;;;;11.13;6.00;;;16.30;99.90;;;;;;4146159;28;20270;-83
2021/08/23 07:42:43;;;;;;;9.17;6.03;;;16.10;99.90;;;;;;4156909;28;20214;-83
2021/08/23 07:44:44;;;;;;;7.30;5.10;;;16.20;99.90;;;;;;4148403;28;20213;-83
2021/08/23 07:46:47;;;;;;;7.90;5.30;;;16.20;99.90;;;;;;4144433;28;20246;-83
2021/08/23 07:48:49;;;;;;;6.50;4.90;;;16.20;99.90;;;;;;4154473;28;20229;-83
2021/08/23 07:50:51;;;;;;;6.77;4.67;;;16.20;99.90;;;;;;4144968;28;20245;-83
2021/08/23 07:52:53;;;;;;;5.90;4.23;;;16.20;99.90;;;;;;4153920;28;20233;-83
2021/08/23 07:54:54;;;;;;;5.57;4.60;;;16.20;99.90;;;;;;4132532;28;20253;-82
2021/08/23 07:56:56;;;;;;;5.70;4.50;;;16.30;99.90;;;;;;4150517;28;20218;-83
2021/08/23 07:58:58;;;;;;;4.90;4.17;;;16.30;99.90;;;;;;4148095;28;20723;-82
2021/08/23 08:00:59;;;;;;;4.50;3.97;;;16.30;99.90;;;;;;4153483;28;20230;-82
2021/08/23 08:03:02;;;;;;;5.60;3.90;;;16.30;99.90;;;;;;4147775;28;20285;-82
2021/08/23 08:05:05;;;;;;;6.13;4.60;;;16.30;99.90;;;;;;4154856;28;20206;-83
2021/08/23 08:07:07;;;;;;;7.13;4.80;;;16.40;99.90;;;;;;4154333;28;20229;-82
2021/08/23 08:09:09;;;;;;;5.17;4.33;;;16.40;99.90;;;;;;4148759;28;20211;-82
2021/08/23 08:11:10;;;;;;;6.53;4.27;;;16.50;99.90;;;;;;4144977;28;20223;-83
2021/08/23 08:13:12;;;;;;;7.27;4.70;;;16.40;99.90;;;;;;4149453;28;20674;-82
2021/08/23 08:15:14;;;;;;;5.77;4.00;;;16.50;99.90;;;;;;4153168;28;20214;-82
2021/08/23 08:17:16;;;;;;;6.07;4.07;;;16.50;99.90;;;;;;4145035;28;20350;-82
2021/08/23 08:19:22;;;;;;;5.50;3.97;;;16.50;99.90;;;;;;4144056;28;20254;-83
2021/08/23 08:21:24;;;;;;;5.97;3.97;;;16.60;99.90;;;;;;4143939;28;20241;-82
2021/08/23 08:23:26;;;;;;;4.53;3.40;;;16.60;99.90;;;;;;4143981;28;20215;-82
2021/08/23 08:25:30;;;;;;;4.37;3.50;;;16.60;99.90;;;;;;4147038;28;20238;-82
2021/08/23 08:27:31;;;;;;;5.70;3.60;;;16.70;99.90;;;;;;4143855;28;20282;-84
2021/08/23 08:29:33;;;;;;;4.43;3.20;;;16.60;99.90;;;;;;4145309;28;20836;-83
2021/08/23 08:31:35;;;;;;;5.53;3.10;;;16.60;99.90;;;;;;4146977;28;20221;-81
2021/08/23 08:33:36;;;;;;;4.57;2.87;;;16.60;99.90;;;;;;4145745;28;20648;-82
2021/08/23 08:35:40;;;;;;;2.93;2.60;;;16.60;99.90;;;;;;4145661;28;20220;-84
2021/08/23 08:37:43;;;;;;;3.10;2.40;;;16.50;99.90;;;;;;4144580;28;20288;-83
2021/08/23 08:39:45;;;;;;;3.03;2.10;;;16.60;99.90;;;;;;4146474;28;20215;-83
2021/08/23 08:41:46;;;;;;;2.00;1.80;;;16.60;99.90;;;;;;4146856;28;20216;-83
2021/08/23 08:43:48;;;;;;;1.70;1.60;;;16.60;99.90;;;;;;4145193;28;20402;-82
2021/08/23 08:45:50;;;;;;;3.17;1.40;;;16.60;99.90;;;;;;4140127;28;20728;-84
2021/08/23 08:47:52;;;;;;;1.83;1.50;;;17.00;99.90;;;;;;4144348;28;20236;-84
2021/08/23 08:49:55;;;;;;;1.87;1.50;;;16.60;99.90;;;;;;4144805;28;20203;-83
2021/08/23 08:51:58;;;;;;;2.40;1.60;;;16.60;99.90;;;;;;4144485;28;20270;-83
2021/08/23 08:54:00;;;;;;;2.40;1.70;;;16.60;99.90;;;;;;4133720;28;20224;-82
2021/08/23 08:56:04;;;;;;;2.77;1.90;;;16.60;99.90;;;;;;4147488;28;20670;-84
2021/08/23 08:58:06;;;;;;;2.30;1.87;;;16.60;99.90;;;;;;4145407;28;20224;-83
2021/08/23 09:00:10;;;;;;;2.23;2.03;;;16.60;99.90;;;;;;4144918;28;20238;-83
2021/08/23 09:02:12;;;;;;;1.97;1.70;;;16.60;99.90;;;;;;4147389;28;20208;-82
2021/08/23 09:04:13;;;;;;;1.93;1.70;;;16.60;99.90;;;;;;4145780;28;20215;-82
2021/08/23 09:06:15;;;;;;;2.50;2.13;;;16.60;99.90;;;;;;4144506;28;20727;-82
2021/08/23 09:08:27;;;;;;;2.67;2.17;;;16.80;99.90;;;;;;4142972;28;20646;-82
2021/08/23 09:10:28;;;;;;;3.00;2.40;;;16.60;99.90;;;;;;4149025;28;20211;-83
2021/08/23 09:12:30;;;;;;;2.73;2.50;;;16.60;99.90;;;;;;4147826;28;20219;-82
2021/08/23 09:14:33;;;;;;;2.80;2.47;;;16.60;99.90;;;;;;4144482;28;20212;-82
2021/08/23 09:16:36;;;;;;;3.13;2.80;;;16.60;99.90;;;;;;4147573;28;20238;-82
2021/08/23 09:18:38;;;;;;;2.90;2.57;;;16.60;99.90;;;;;;4148569;28;20616;-82
2021/08/23 09:20:39;;;;;;;3.27;2.87;;;16.60;99.90;;;;;;4150778;28;20659;-83
2021/08/23 09:22:41;;;;;;;3.03;2.70;;;16.60;99.90;;;;;;4148293;28;20467;-83
2021/08/23 09:24:44;;;;;;;3.13;2.83;;;16.60;99.90;;;;;;4149628;28;20214;-83
2021/08/23 09:26:46;;;;;;;3.60;3.20;;;16.70;99.90;;;;;;4149981;28;20238;-82
2021/08/23 09:28:56;;;;;;;3.60;3.30;;;16.50;99.90;;;;;;4149807;28;20259;-83
2021/08/23 09:30:59;;;;;;;4.60;3.63;;;16.50;99.90;;;;;;4150430;28;20233;-81
2021/08/23 09:33:02;;;;;;;6.07;4.40;;;16.50;99.90;;;;;;4134451;28;20275;-81
2021/08/23 09:35:04;;;;;;;5.87;4.60;;;16.50;99.90;;;;;;4133618;28;20212;-82
2021/08/23 09:37:06;;;;;;;6.13;5.23;;;16.50;99.90;;;;;;4158474;28;20237;-81
2021/08/23 09:39:12;;;;;;;8.03;5.37;;;16.50;99.90;;;;;;4164144;28;20565;-80
2021/08/23 09:41:22;;;;;;;6.60;5.43;;;16.50;99.90;;;;;;4152006;28;20207;-82
2021/08/23 09:43:30;;;;;;;7.43;5.83;;;16.50;99.90;;;;;;4146810;28;20537;-80
2021/08/23 09:45:34;;;;;;;7.90;5.83;;;16.50;99.90;;;;;;4147352;28;20270;-80
2021/08/23 09:47:35;;;;;;;6.67;5.43;;;16.50;99.90;;;;;;4158289;23;20736;-84
2021/08/23 09:49:38;;;;;;;8.17;6.27;;;16.40;99.90;;;;;;4145108;28;20214;-84
2021/08/23 09:51:43;;;;;;;7.80;6.10;;;16.50;99.90;;;;;;4141801;28;20293;-84
2021/08/23 09:53:44;;;;;;;6.63;5.73;;;16.50;99.90;;;;;;4145675;28;20666;-84
2021/08/23 09:55:48;;;;;;;7.77;6.10;;;16.40;99.90;;;;;;4144828;28;20649;-84
2021/08/23 09:57:51;;;;;;;8.03;6.20;;;16.40;99.90;;;;;;4145137;28;20230;-84
2021/08/23 09:59:54;;;;;;;6.77;5.40;;;16.30;99.90;;;;;;4147396;28;20220;-84
2021/08/23 10:01:57;;;;;;;6.20;5.03;;;16.30;99.90;;;;;;4146757;28;20214;-84
2021/08/23 10:04:02;;;;;;;5.27;4.27;;;16.30;99.90;;;;;;4141469;28;20215;-84
2021/08/23 10:06:04;;;;;;;7.07;4.50;;;16.30;99.90;;;;;;4146948;28;20284;-84
2021/08/23 10:08:06;;;;;;;5.23;4.10;;;16.30;99.90;;;;;;4147544;28;20714;-84
2021/08/23 10:10:10;;;;;;;4.70;4.20;;;16.30;99.90;;;;;;4144898;28;20211;-84
2021/08/23 10:12:13;;;;;;;4.87;3.70;;;16.30;99.90;;;;;;4144606;28;20723;-84
2021/08/23 10:14:16;;;;;;;4.00;3.57;;;16.40;99.90;;;;;;4145754;28;20224;-84
2021/08/23 10:16:18;;;;;;;5.87;3.43;;;16.30;99.90;;;;;;4145973;28;20218;-84
2021/08/23 10:18:21;;;;;;;4.67;3.77;;;16.50;99.90;;;;;;4137059;28;20285;-84
2021/08/23 10:20:23;;;;;;;4.90;3.90;;;16.40;99.90;;;;;;4145370;28;20732;-84
2021/08/23 10:22:25;;;;;;;4.90;3.73;;;16.30;99.90;;;;;;4143714;28;20216;-84
2021/08/23 10:24:29;;;;;;;5.17;4.10;;;16.40;99.90;;;;;;4144280;28;20219;-84
2021/08/23 10:26:39;;;;;;;5.93;3.83;;;16.40;99.90;;;;;;4144753;28;20215;-83
2021/08/23 10:28:41;;;;;;;5.03;3.83;;;16.40;99.90;;;;;;4134000;28;20250;-84
2021/08/23 10:30:49;;;;;;;3.90;3.30;;;16.50;99.90;;;;;;4143737;28;20223;-84